Time;durP1;ratioP1;P1;durP2;ratioP2;P2;SDS_P1;SDS_P2;PMS_P1;PMS_P2;Temp;Humidity;BMP_temperature;BMP_pressure;BME280_temperature;BME280_humidity;BME280_pressure;Samples;Min_cycle;Max_cycle;Signal;HPM_P1;HPM_P2
2022/03/01 00:00:42;;;;;;;82.40;36.78;;;;;;;;;;5074636;28;20021;-60
2022/03/01 00:03:08;;;;;;;87.65;40.22;;;;;;;;;;5074677;28;20562;-60
2022/03/01 00:05:33;;;;;;;42.63;21.20;;;;;;;;;;5074395;28;20025;-61
2022/03/01 00:07:59;;;;;;;37.78;19.00;;;;;;;;;;5074341;28;20028;-61
2022/03/01 00:10:24;;;;;;;43.20;20.13;;;;;;;;;;5074602;28;20675;-61
2022/03/01 00:12:50;;;;;;;46.92;21.45;;;;;;;;;;5074381;28;20364;-60
2022/03/01 00:15:16;;;;;;;55.33;23.35;;;;;;;;;;5056591;28;20490;-61
2022/03/01 00:17:42;;;;;;;63.67;26.25;;;;;;;;;;5074366;28;20027;-67
2022/03/01 00:20:08;;;;;;;72.45;28.30;;;;;;;;;;5073909;28;20040;-61
2022/03/01 00:22:34;;;;;;;77.68;30.67;;;;;;;;;;5074212;28;20474;-60
2022/03/01 00:25:00;;;;;;;79.95;30.45;;;;;;;;;;5074283;28;20040;-61
2022/03/01 00:27:25;;;;;;;66.75;28.13;;;;;;;;;;5074124;28;20020;-67
2022/03/01 00:29:51;;;;;;;75.80;30.77;;;;;;;;;;5072807;28;20581;-67
2022/03/01 00:32:16;;;;;;;68.03;27.67;;;;;;;;;;5074001;28;20085;-67
2022/03/01 00:34:42;;;;;;;66.43;27.80;;;;;;;;;;5073993;28;20083;-67
2022/03/01 00:37:07;;;;;;;68.57;27.45;;;;;;;;;;5073950;28;20073;-60
2022/03/01 00:39:32;;;;;;;65.03;26.30;;;;;;;;;;5072699;28;20029;-61
2022/03/01 00:41:58;;;;;;;60.03;26.30;;;;;;;;;;5074012;28;20020;-61
2022/03/01 00:44:23;;;;;;;65.50;28.00;;;;;;;;;;5072571;28;20028;-61
2022/03/01 00:46:49;;;;;;;75.60;32.40;;;;;;;;;;5073714;28;20102;-61
2022/03/01 00:49:14;;;;;;;80.63;36.58;;;;;;;;;;5073352;28;20044;-61
2022/03/01 00:51:42;;;;;;;84.85;38.25;;;;;;;;;;5073992;28;20421;-61
2022/03/01 00:54:08;;;;;;;58.30;28.73;;;;;;;;;;5073711;28;20364;-61
2022/03/01 00:56:35;;;;;;;44.75;23.35;;;;;;;;;;5073411;28;20016;-61
2022/03/01 00:59:01;;;;;;;47.22;24.90;;;;;;;;;;5073757;28;20025;-61
2022/03/01 01:01:27;;;;;;;51.17;27.38;;;;;;;;;;5073721;28;20024;-61
2022/03/01 01:03:52;;;;;;;102.75;47.65;;;;;;;;;;5073598;28;20028;-61
2022/03/01 01:06:18;;;;;;;96.07;46.42;;;;;;;;;;5073461;28;20046;-61
2022/03/01 01:08:43;;;;;;;69.07;33.33;;;;;;;;;;5073500;28;20035;-61
2022/03/01 01:11:09;;;;;;;61.63;28.33;;;;;;;;;;5073502;28;20040;-61
2022/03/01 01:13:35;;;;;;;71.82;31.38;;;;;;;;;;5071883;28;20032;-61
2022/03/01 01:16:00;;;;;;;65.30;29.27;;;;;;;;;;5073238;28;20074;-66
2022/03/01 01:18:25;;;;;;;52.47;22.55;;;;;;;;;;5073454;28;20043;-61
2022/03/01 01:20:51;;;;;;;75.60;30.48;;;;;;;;;;5073003;28;20090;-61
2022/03/01 01:23:17;;;;;;;75.68;32.08;;;;;;;;;;5072097;28;20021;-60
2022/03/01 01:25:42;;;;;;;81.07;31.75;;;;;;;;;;5073206;28;20495;-60
2022/03/01 01:28:08;;;;;;;78.45;31.75;;;;;;;;;;5073287;28;20111;-61
2022/03/01 01:30:34;;;;;;;74.32;31.88;;;;;;;;;;5071829;28;20453;-60
2022/03/01 01:33:00;;;;;;;53.38;25.23;;;;;;;;;;5074894;28;20028;-60
2022/03/01 01:35:26;;;;;;;35.45;20.23;;;;;;;;;;5077472;28;20019;-66
2022/03/01 01:37:53;;;;;;;34.40;17.70;;;;;;;;;;5077461;28;20132;-66
2022/03/01 01:40:19;;;;;;;33.80;18.30;;;;;;;;;;5076004;28;20028;-66
2022/03/01 01:42:45;;;;;;;47.03;21.60;;;;;;;;;;5077450;28;20071;-66
2022/03/01 01:45:11;;;;;;;38.88;18.05;;;;;;;;;;5077224;28;20101;-66
2022/03/01 01:47:37;;;;;;;35.67;16.40;;;;;;;;;;5077248;28;20107;-66
2022/03/01 01:50:03;;;;;;;32.05;16.92;;;;;;;;;;5076914;28;20510;-65
2022/03/01 01:52:28;;;;;;;27.58;14.57;;;;;;;;;;5077158;28;20029;-60
2022/03/01 01:54:54;;;;;;;32.70;16.38;;;;;;;;;;5077503;28;20501;-60
2022/03/01 01:57:20;;;;;;;31.83;16.50;;;;;;;;;;5077180;28;20024;-60
2022/03/01 01:59:47;;;;;;;34.42;18.30;;;;;;;;;;5077194;28;20031;-60
2022/03/01 02:02:15;;;;;;;37.75;19.15;;;;;;;;;;5076754;28;20104;-60
2022/03/01 02:04:40;;;;;;;33.95;16.77;;;;;;;;;;5077256;28;20020;-60
2022/03/01 02:07:06;;;;;;;33.45;17.25;;;;;;;;;;5076956;28;20027;-60
2022/03/01 02:09:32;;;;;;;33.85;17.98;;;;;;;;;;5075615;28;20024;-60
2022/03/01 02:11:57;;;;;;;37.30;18.13;;;;;;;;;;5076705;28;20094;-60
2022/03/01 02:14:22;;;;;;;38.75;20.00;;;;;;;;;;5076648;28;20070;-60
2022/03/01 02:16:48;;;;;;;30.65;16.30;;;;;;;;;;5076831;28;20115;-60
2022/03/01 02:19:14;;;;;;;29.42;16.55;;;;;;;;;;5076743;28;20017;-66
2022/03/01 02:21:49;;;;;;;31.98;17.27;;;;;;;;;;5076594;28;20037;-66
2022/03/01 02:24:15;;;;;;;31.75;17.75;;;;;;;;;;5076479;28;20017;-66
2022/03/01 02:26:40;;;;;;;35.25;19.10;;;;;;;;;;5076464;28;20158;-66
2022/03/01 02:29:08;;;;;;;35.33;19.23;;;;;;;;;;5075342;28;20070;-66
2022/03/01 02:31:34;;;;;;;34.50;18.80;;;;;;;;;;5076364;28;20428;-66
2022/03/01 02:33:59;;;;;;;33.55;18.63;;;;;;;;;;5075196;28;20141;-66
2022/03/01 02:36:24;;;;;;;37.15;18.77;;;;;;;;;;5076391;28;20345;-67
2022/03/01 02:38:50;;;;;;;38.53;19.38;;;;;;;;;;5076783;28;20040;-66
2022/03/01 02:41:15;;;;;;;34.38;18.63;;;;;;;;;;5075166;28;20062;-66
2022/03/01 02:43:41;;;;;;;34.20;17.58;;;;;;;;;;5075787;28;20244;-66
2022/03/01 02:46:06;;;;;;;30.83;16.50;;;;;;;;;;5076226;28;20018;-66
2022/03/01 02:48:32;;;;;;;35.97;17.67;;;;;;;;;;5076082;28;20033;-64
2022/03/01 02:50:57;;;;;;;36.00;18.13;;;;;;;;;;5075266;28;20372;-65
2022/03/01 02:53:23;;;;;;;33.63;18.75;;;;;;;;;;5074872;28;20129;-65
2022/03/01 02:55:49;;;;;;;36.42;18.60;;;;;;;;;;5076278;28;20111;-66
2022/03/01 02:58:15;;;;;;;38.92;19.17;;;;;;;;;;5075946;28;20032;-66
2022/03/01 03:00:42;;;;;;;34.55;17.20;;;;;;;;;;5076157;28;20013;-65
2022/03/01 03:03:07;;;;;;;33.17;16.20;;;;;;;;;;5075907;28;20052;-60
2022/03/01 03:05:32;;;;;;;30.55;16.70;;;;;;;;;;5076237;28;20027;-60
2022/03/01 03:07:58;;;;;;;29.33;16.38;;;;;;;;;;5076020;28;20037;-60
2022/03/01 03:10:23;;;;;;;30.42;16.45;;;;;;;;;;5076007;28;20023;-60
2022/03/01 03:12:49;;;;;;;32.40;15.98;;;;;;;;;;5075619;28;20036;-60
2022/03/01 03:15:15;;;;;;;32.78;16.98;;;;;;;;;;5074186;28;20023;-60
2022/03/01 03:17:41;;;;;;;27.40;16.85;;;;;;;;;;5075442;28;20036;-66
2022/03/01 03:20:08;;;;;;;38.17;15.73;;;;;;;;;;5075637;28;20094;-65
2022/03/01 03:22:34;;;;;;;29.63;15.80;;;;;;;;;;5075315;28;20029;-65
2022/03/01 03:25:01;;;;;;;28.08;15.70;;;;;;;;;;5075445;28;20436;-66
2022/03/01 03:27:26;;;;;;;28.25;15.50;;;;;;;;;;5075284;28;20119;-66
2022/03/01 03:29:52;;;;;;;25.33;13.70;;;;;;;;;;5074970;28;20059;-66
2022/03/01 03:32:18;;;;;;;25.92;15.35;;;;;;;;;;5074979;28;20033;-65
2022/03/01 03:34:44;;;;;;;22.00;12.57;;;;;;;;;;5075371;28;20452;-60
2022/03/01 03:37:09;;;;;;;23.67;12.18;;;;;;;;;;5075574;28;20119;-60
2022/03/01 03:39:36;;;;;;;22.17;12.52;;;;;;;;;;5074962;28;20013;-60
2022/03/01 03:42:01;;;;;;;24.20;13.68;;;;;;;;;;5074923;28;20044;-60
2022/03/01 03:44:27;;;;;;;25.65;14.90;;;;;;;;;;5075229;28;20013;-59
2022/03/01 03:46:52;;;;;;;25.30;14.65;;;;;;;;;;5074938;28;20101;-60
2022/03/01 03:49:19;;;;;;;26.58;14.50;;;;;;;;;;5074485;28;20051;-60
2022/03/01 03:51:45;;;;;;;26.83;14.35;;;;;;;;;;5074738;28;20444;-66
2022/03/01 03:54:11;;;;;;;18.35;10.73;;;;;;;;;;5074903;28;20020;-66
2022/03/01 03:56:38;;;;;;;20.77;11.77;;;;;;;;;;5074066;28;20034;-66
2022/03/01 03:59:03;;;;;;;19.85;12.20;;;;;;;;;;5074681;28;20460;-67
2022/03/01 04:01:29;;;;;;;47.45;23.17;;;;;;;;;;5074531;28;20035;-65
2022/03/01 04:03:58;;;;;;;34.10;18.23;;;;;;;;;;5074721;28;20017;-65
2022/03/01 04:06:26;;;;;;;19.40;10.23;;;;;;;;;;5074759;28;20028;-66
2022/03/01 04:08:51;;;;;;;32.40;15.43;;;;;;;;;;5074556;28;20024;-66
2022/03/01 04:11:17;;;;;;;118.88;45.75;;;;;;;;;;5074594;28;20074;-65
2022/03/01 04:13:42;;;;;;;43.58;19.50;;;;;;;;;;5074348;28;20027;-65
2022/03/01 04:16:08;;;;;;;22.50;11.95;;;;;;;;;;5074460;28;20036;-65
2022/03/01 04:18:33;;;;;;;46.00;17.27;;;;;;;;;;5074350;28;20096;-65
2022/03/01 04:20:58;;;;;;;71.82;28.05;;;;;;;;;;5074157;28;20028;-60
2022/03/01 04:23:24;;;;;;;32.42;16.23;;;;;;;;;;5074171;28;20028;-60
2022/03/01 04:25:50;;;;;;;28.90;13.68;;;;;;;;;;5074458;28;20047;-60
2022/03/01 04:28:16;;;;;;;25.30;14.05;;;;;;;;;;5074392;28;20093;-60
2022/03/01 04:30:41;;;;;;;32.88;16.15;;;;;;;;;;5074108;28;20024;-59
2022/03/01 04:33:07;;;;;;;30.92;18.52;;;;;;;;;;5074360;28;20519;-59
2022/03/01 04:35:32;;;;;;;68.35;29.20;;;;;;;;;;5074058;28;20029;-59
2022/03/01 04:37:58;;;;;;;104.72;46.72;;;;;;;;;;5073855;28;20017;-59
2022/03/01 04:40:23;;;;;;;123.45;53.58;;;;;;;;;;5074061;28;20025;-59
2022/03/01 04:42:49;;;;;;;72.35;33.60;;;;;;;;;;5073942;28;20099;-59
2022/03/01 04:45:16;;;;;;;59.38;29.35;;;;;;;;;;5073594;28;20115;-59
2022/03/01 04:47:42;;;;;;;19.58;12.10;;;;;;;;;;5072400;28;20016;-59
2022/03/01 04:50:08;;;;;;;25.05;15.70;;;;;;;;;;5073590;28;20539;-59
2022/03/01 04:52:35;;;;;;;27.83;15.15;;;;;;;;;;5072349;28;20048;-59
2022/03/01 04:55:01;;;;;;;31.73;18.13;;;;;;;;;;5073643;28;20033;-59
2022/03/01 04:57:26;;;;;;;20.90;12.80;;;;;;;;;;5073740;28;20032;-59
2022/03/01 04:59:52;;;;;;;22.58;12.25;;;;;;;;;;5073852;28;20054;-59
2022/03/01 05:02:18;;;;;;;21.55;12.07;;;;;;;;;;5073064;28;20029;-65
2022/03/01 05:04:44;;;;;;;19.30;12.02;;;;;;;;;;5073302;28;20050;-66
2022/03/01 05:07:09;;;;;;;52.08;19.13;;;;;;;;;;5073246;28;20019;-66
2022/03/01 05:09:35;;;;;;;50.55;20.92;;;;;;;;;;5073431;28;20028;-66
2022/03/01 05:12:00;;;;;;;48.60;20.52;;;;;;;;;;5073218;28;20460;-66
2022/03/01 05:14:26;;;;;;;41.33;18.70;;;;;;;;;;5073196;28;20503;-65
2022/03/01 05:16:51;;;;;;;45.60;18.23;;;;;;;;;;5073176;28;20035;-59
2022/03/01 05:19:22;;;;;;;28.98;13.38;;;;;;;;;;5072774;28;20033;-60
2022/03/01 05:21:48;;;;;;;36.03;14.77;;;;;;;;;;5072052;28;20028;-60
2022/03/01 05:24:14;;;;;;;33.45;15.70;;;;;;;;;;5073232;28;20104;-61
2022/03/01 05:26:39;;;;;;;32.47;15.05;;;;;;;;;;5073405;28;20039;-60
2022/03/01 05:29:07;;;;;;;33.60;15.38;;;;;;;;;;5073337;28;20020;-60
2022/03/01 05:31:33;;;;;;;29.48;14.30;;;;;;;;;;5072350;28;20039;-60
2022/03/01 05:33:59;;;;;;;21.23;12.82;;;;;;;;;;5072341;28;20066;-60
2022/03/01 05:36:25;;;;;;;29.08;17.67;;;;;;;;;;5073134;28;20036;-59
2022/03/01 05:38:50;;;;;;;29.65;19.10;;;;;;;;;;5073396;28;20023;-60
2022/03/01 05:41:17;;;;;;;27.63;18.35;;;;;;;;;;5073072;28;20029;-60
2022/03/01 05:43:43;;;;;;;33.50;16.83;;;;;;;;;;5073002;28;20013;-60
2022/03/01 05:46:08;;;;;;;27.42;16.15;;;;;;;;;;5073223;28;20123;-59
2022/03/01 05:48:34;;;;;;;30.23;17.15;;;;;;;;;;5072823;28;20040;-61
2022/03/01 05:51:01;;;;;;;37.45;18.15;;;;;;;;;;5073419;28;20396;-59
2022/03/01 05:53:26;;;;;;;35.38;18.88;;;;;;;;;;5073265;28;20029;-59
2022/03/01 05:55:52;;;;;;;34.63;18.80;;;;;;;;;;5073150;28;20146;-60
2022/03/01 05:58:19;;;;;;;47.40;25.10;;;;;;;;;;5072837;28;20092;-60
2022/03/01 06:00:45;;;;;;;64.93;32.90;;;;;;;;;;5072931;28;20111;-60
2022/03/01 06:03:11;;;;;;;119.32;63.45;;;;;;;;;;5072676;28;20100;-60
2022/03/01 06:05:36;;;;;;;111.85;60.75;;;;;;;;;;5072604;28;20032;-60
2022/03/01 06:08:08;;;;;;;99.78;55.80;;;;;;;;;;5072707;28;20024;-60
2022/03/01 06:10:34;;;;;;;77.75;44.85;;;;;;;;;;5071115;28;20024;-59
2022/03/01 06:12:59;;;;;;;57.50;33.60;;;;;;;;;;5072387;28;20044;-59
2022/03/01 06:15:25;;;;;;;41.35;26.42;;;;;;;;;;5072681;28;20039;-60
2022/03/01 06:17:50;;;;;;;37.95;23.70;;;;;;;;;;5072694;28;20384;-59
2022/03/01 06:20:17;;;;;;;38.88;24.65;;;;;;;;;;5076347;28;20086;-60
2022/03/01 06:22:42;;;;;;;34.75;21.30;;;;;;;;;;5076503;28;20024;-60
2022/03/01 06:25:08;;;;;;;31.98;21.23;;;;;;;;;;5076619;28;20047;-60
2022/03/01 06:27:35;;;;;;;47.70;23.98;;;;;;;;;;5076649;28;20070;-60
2022/03/01 06:30:00;;;;;;;44.17;23.10;;;;;;;;;;5076062;28;20042;-59
2022/03/01 06:32:25;;;;;;;38.72;20.65;;;;;;;;;;5075934;28;20016;-59
2022/03/01 06:34:51;;;;;;;31.17;17.55;;;;;;;;;;5075907;28;20035;-59
2022/03/01 06:37:16;;;;;;;35.10;17.65;;;;;;;;;;5075869;28;20079;-60
2022/03/01 06:39:43;;;;;;;44.28;24.60;;;;;;;;;;5075847;28;20032;-60
2022/03/01 06:42:09;;;;;;;55.35;29.73;;;;;;;;;;5075711;28;20107;-59
2022/03/01 06:44:34;;;;;;;42.20;24.90;;;;;;;;;;5075766;28;20028;-60
2022/03/01 06:47:00;;;;;;;34.70;20.67;;;;;;;;;;5075765;28;20035;-60
2022/03/01 06:49:25;;;;;;;23.80;16.17;;;;;;;;;;5075293;28;20041;-61
2022/03/01 06:51:51;;;;;;;42.47;28.90;;;;;;;;;;5075660;28;20094;-60
2022/03/01 06:54:16;;;;;;;40.20;24.98;;;;;;;;;;5075666;28;20537;-60
2022/03/01 06:56:42;;;;;;;31.50;20.10;;;;;;;;;;5075579;28;20024;-61
2022/03/01 06:59:07;;;;;;;71.22;39.42;;;;;;;;;;5075651;28;20140;-60
2022/03/01 07:01:32;;;;;;;51.25;29.40;;;;;;;;;;5075428;28;20029;-60
2022/03/01 07:03:58;;;;;;;38.78;25.42;;;;;;;;;;5075438;28;20032;-60
2022/03/01 07:06:23;;;;;;;27.27;15.90;;;;;;;;;;5075375;28;20020;-60
2022/03/01 07:08:49;;;;;;;26.48;14.43;;;;;;;;;;5075265;28;20070;-60
2022/03/01 07:11:15;;;;;;;19.92;11.95;;;;;;;;;;5073940;28;20380;-60
2022/03/01 07:13:40;;;;;;;18.40;11.60;;;;;;;;;;5075171;28;20038;-60
2022/03/01 07:16:06;;;;;;;19.80;11.65;;;;;;;;;;5075265;28;20452;-60
2022/03/01 07:18:31;;;;;;;19.48;11.23;;;;;;;;;;5075244;28;20021;-60
2022/03/01 07:20:56;;;;;;;21.73;11.85;;;;;;;;;;5075075;28;20020;-60
2022/03/01 07:23:22;;;;;;;19.65;11.88;;;;;;;;;;5074948;28;20036;-60
2022/03/01 07:25:48;;;;;;;18.23;10.73;;;;;;;;;;5074975;28;20021;-60
2022/03/01 07:28:13;;;;;;;25.35;12.93;;;;;;;;;;5075020;28;20108;-60
2022/03/01 07:30:38;;;;;;;23.88;15.40;;;;;;;;;;5073687;28;20120;-61
2022/03/01 07:33:04;;;;;;;24.95;14.85;;;;;;;;;;5074879;28;20036;-61
2022/03/01 07:35:30;;;;;;;17.83;12.07;;;;;;;;;;5074950;28;20025;-60
2022/03/01 07:37:55;;;;;;;14.80;10.20;;;;;;;;;;5075234;28;20468;-60
2022/03/01 07:40:22;;;;;;;21.08;12.15;;;;;;;;;;5075141;28;20021;-60
2022/03/01 07:42:48;;;;;;;17.00;10.93;;;;;;;;;;5074969;28;20086;-61
2022/03/01 07:45:13;;;;;;;21.63;13.35;;;;;;;;;;5074935;28;20025;-60
2022/03/01 07:47:39;;;;;;;15.38;9.88;;;;;;;;;;5074945;28;20025;-61
2022/03/01 07:50:05;;;;;;;26.60;14.77;;;;;;;;;;5074611;28;20056;-61
2022/03/01 07:52:31;;;;;;;13.15;9.25;;;;;;;;;;5074845;28;20035;-61
2022/03/01 07:54:56;;;;;;;11.73;8.15;;;;;;;;;;5074374;28;20028;-60
2022/03/01 07:57:22;;;;;;;11.68;7.93;;;;;;;;;;5074349;28;20033;-61
2022/03/01 07:59:47;;;;;;;14.48;9.20;;;;;;;;;;5074338;28;20472;-61
2022/03/01 08:02:12;;;;;;;22.45;12.80;;;;;;;;;;5073802;28;20037;-61
2022/03/01 08:04:41;;;;;;;22.75;12.80;;;;;;;;;;5073491;28;20079;-61
2022/03/01 08:07:10;;;;;;;21.92;12.73;;;;;;;;;;5073708;28;20048;-61
2022/03/01 08:09:36;;;;;;;10.85;6.90;;;;;;;;;;5073723;28;20074;-61
2022/03/01 08:12:02;;;;;;;9.48;6.35;;;;;;;;;;5073685;28;20480;-61
2022/03/01 08:14:30;;;;;;;5.50;4.07;;;;;;;;;;5073767;28;20023;-61
2022/03/01 08:16:55;;;;;;;6.88;4.90;;;;;;;;;;5073931;28;20040;-61
2022/03/01 08:19:21;;;;;;;4.78;3.90;;;;;;;;;;5074018;28;20031;-61
2022/03/01 08:21:46;;;;;;;5.60;4.60;;;;;;;;;;5073873;28;20365;-60
2022/03/01 08:24:11;;;;;;;11.00;7.20;;;;;;;;;;5073784;28;20091;-61
2022/03/01 08:26:38;;;;;;;6.55;5.40;;;;;;;;;;5073141;28;20431;-61
2022/03/01 08:29:04;;;;;;;8.20;5.68;;;;;;;;;;5073656;28;20099;-61
2022/03/01 08:31:29;;;;;;;5.00;4.50;;;;;;;;;;5073947;28;20124;-61
2022/03/01 08:33:59;;;;;;;5.72;4.40;;;;;;;;;;5073966;28;20052;-61
2022/03/01 08:36:24;;;;;;;8.63;5.55;;;;;;;;;;5073916;28;20025;-61
2022/03/01 08:38:50;;;;;;;6.63;5.40;;;;;;;;;;5073784;28;20016;-61
2022/03/01 08:41:15;;;;;;;5.85;3.63;;;;;;;;;;5073634;28;20032;-60
2022/03/01 08:43:41;;;;;;;6.30;3.80;;;;;;;;;;5073889;28;20016;-61
2022/03/01 08:46:09;;;;;;;7.65;5.43;;;;;;;;;;5073390;28;20058;-60
2022/03/01 08:48:34;;;;;;;11.55;6.20;;;;;;;;;;5073157;28;20096;-61
2022/03/01 08:51:00;;;;;;;6.43;5.40;;;;;;;;;;5073490;28;20245;-61
2022/03/01 08:53:25;;;;;;;6.80;4.82;;;;;;;;;;5073351;28;20032;-61
2022/03/01 08:55:51;;;;;;;9.43;5.85;;;;;;;;;;5072919;28;20028;-61
2022/03/01 08:58:16;;;;;;;18.42;9.35;;;;;;;;;;5073531;28;20032;-61
2022/03/01 09:00:42;;;;;;;34.13;14.85;;;;;;;;;;5073391;28;20029;-61
2022/03/01 09:03:07;;;;;;;17.63;8.32;;;;;;;;;;5073291;28;20023;-61
2022/03/01 09:05:33;;;;;;;33.47;16.42;;;;;;;;;;5073314;28;20028;-61
2022/03/01 09:07:58;;;;;;;13.27;8.40;;;;;;;;;;5073139;28;20024;-61
2022/03/01 09:10:24;;;;;;;9.07;6.85;;;;;;;;;;5073052;28;20025;-61
2022/03/01 09:12:53;;;;;;;5.95;4.93;;;;;;;;;;5071790;28;20017;-61
2022/03/01 09:15:19;;;;;;;6.07;4.95;;;;;;;;;;5073223;28;20093;-61
2022/03/01 09:17:45;;;;;;;6.15;4.50;;;;;;;;;;5073198;28;20025;-61
2022/03/01 09:20:11;;;;;;;8.48;5.55;;;;;;;;;;5073125;28;20035;-60
2022/03/01 09:22:37;;;;;;;5.78;4.78;;;;;;;;;;5072993;28;20020;-60
2022/03/01 09:25:04;;;;;;;6.88;5.57;;;;;;;;;;5073053;28;20460;-61
2022/03/01 09:27:30;;;;;;;7.10;5.20;;;;;;;;;;5073098;28;20027;-60
2022/03/01 09:29:56;;;;;;;33.90;14.57;;;;;;;;;;5072765;28;20119;-60
2022/03/01 09:32:21;;;;;;;6.07;4.75;;;;;;;;;;5072941;28;20029;-61
2022/03/01 09:34:47;;;;;;;6.78;4.82;;;;;;;;;;5072926;28;20032;-60
2022/03/01 09:37:12;;;;;;;11.40;8.05;;;;;;;;;;5072939;28;20032;-61
2022/03/01 09:39:38;;;;;;;14.65;7.70;;;;;;;;;;5072821;28;20377;-61
2022/03/01 09:42:03;;;;;;;10.63;6.90;;;;;;;;;;5072715;28;20452;-60
2022/03/01 09:44:29;;;;;;;7.78;5.60;;;;;;;;;;5072754;28;20035;-61
2022/03/01 09:46:54;;;;;;;9.63;7.00;;;;;;;;;;5072943;28;20016;-60
2022/03/01 09:49:20;;;;;;;6.75;4.85;;;;;;;;;;5072244;28;20072;-60
2022/03/01 09:51:46;;;;;;;8.07;5.55;;;;;;;;;;5072475;28;20031;-60
2022/03/01 09:54:11;;;;;;;7.68;6.18;;;;;;;;;;5074427;28;20115;-60
2022/03/01 09:56:36;;;;;;;16.33;14.57;;;;;;;;;;5076639;28;20099;-60
2022/03/01 09:59:02;;;;;;;7.60;5.40;;;;;;;;;;5076629;28;20078;-61
2022/03/01 10:01:27;;;;;;;6.00;3.85;;;;;;;;;;5076628;28;20027;-61
2022/03/01 10:04:06;;;;;;;4.63;4.15;;;;;;;;;;5075299;28;20492;-61
2022/03/01 10:06:38;;;;;;;7.10;5.22;;;;;;;;;;5076486;28;20040;-61
2022/03/01 10:09:11;;;;;;;5.85;4.97;;;;;;;;;;5075330;28;20051;-61
2022/03/01 10:11:36;;;;;;;5.47;4.15;;;;;;;;;;5076541;28;20056;-61
2022/03/01 10:14:02;;;;;;;4.63;3.72;;;;;;;;;;5076302;28;20468;-60
2022/03/01 10:16:35;;;;;;;5.47;3.70;;;;;;;;;;5076341;28;20032;-61
2022/03/01 10:19:00;;;;;;;4.10;3.13;;;;;;;;;;5076299;28;20039;-61
2022/03/01 10:21:26;;;;;;;4.78;4.28;;;;;;;;;;5076130;28;20032;-60
2022/03/01 10:23:53;;;;;;;3.70;3.30;;;;;;;;;;5076167;28;20034;-60
2022/03/01 10:26:22;;;;;;;6.65;4.53;;;;;;;;;;5076239;28;20012;-60
2022/03/01 10:28:48;;;;;;;5.65;4.03;;;;;;;;;;5076199;28;20363;-60
2022/03/01 10:31:19;;;;;;;4.85;4.28;;;;;;;;;;5075911;28;20100;-60
2022/03/01 10:33:55;;;;;;;7.45;5.68;;;;;;;;;;5075943;28;20119;-62
2022/03/01 10:36:22;;;;;;;8.82;5.38;;;;;;;;;;5076094;28;20066;-60
2022/03/01 10:38:58;;;;;;;6.60;4.35;;;;;;;;;;5075967;28;20017;-60
2022/03/01 10:41:25;;;;;;;9.50;6.50;;;;;;;;;;5075738;28;20033;-62
2022/03/01 10:43:57;;;;;;;7.40;5.22;;;;;;;;;;5075834;28;20028;-61
2022/03/01 10:46:22;;;;;;;5.90;5.13;;;;;;;;;;5075801;28;20037;-62
2022/03/01 10:48:57;;;;;;;6.82;4.60;;;;;;;;;;5075571;28;20055;-62
2022/03/01 10:51:23;;;;;;;7.50;5.40;;;;;;;;;;5075612;28;20032;-62
2022/03/01 10:53:48;;;;;;;8.75;5.03;;;;;;;;;;5075705;28;20021;-62
2022/03/01 10:56:15;;;;;;;11.88;6.15;;;;;;;;;;5075553;28;20033;-62
2022/03/01 10:58:42;;;;;;;17.85;11.30;;;;;;;;;;5075516;28;20043;-62
2022/03/01 11:01:09;;;;;;;21.50;10.95;;;;;;;;;;5075517;28;20035;-62
2022/03/01 11:03:34;;;;;;;10.25;6.55;;;;;;;;;;5075514;28;20163;-61
2022/03/01 11:06:01;;;;;;;9.85;7.00;;;;;;;;;;5075109;28;20103;-62
2022/03/01 11:08:36;;;;;;;10.07;8.32;;;;;;;;;;5075364;28;20051;-61
2022/03/01 11:11:04;;;;;;;12.50;8.25;;;;;;;;;;5075364;28;20035;-62
2022/03/01 11:13:30;;;;;;;14.82;9.80;;;;;;;;;;5075098;28;20025;-62
2022/03/01 11:16:14;;;;;;;20.55;11.13;;;;;;;;;;5075185;28;20028;-60
2022/03/01 11:18:49;;;;;;;40.15;18.73;;;;;;;;;;5075147;28;20040;-62
2022/03/01 11:21:15;;;;;;;14.55;8.93;;;;;;;;;;5075185;28;20056;-62
2022/03/01 11:23:41;;;;;;;30.75;15.88;;;;;;;;;;5075258;28;20482;-62
2022/03/01 11:26:16;;;;;;;136.77;83.15;;;;;;;;;;5075139;28;20029;-61
2022/03/01 11:28:52;;;;;;;46.38;30.48;;;;;;;;;;5075223;28;20024;-62
2022/03/01 11:31:19;;;;;;;39.70;29.33;;;;;;;;;;5074999;28;20020;-61
2022/03/01 11:33:53;;;;;;;64.82;38.50;;;;;;;;;;5073799;28;20024;-62
2022/03/01 11:36:20;;;;;;;12.07;8.35;;;;;;;;;;5075123;28;20039;-62
2022/03/01 11:38:45;;;;;;;11.60;8.00;;;;;;;;;;5074856;28;20015;-62
2022/03/01 11:41:15;;;;;;;13.38;9.63;;;;;;;;;;5074721;28;20025;-62
2022/03/01 11:43:40;;;;;;;8.32;5.90;;;;;;;;;;5074331;28;20464;-61
2022/03/01 11:46:17;;;;;;;14.60;9.95;;;;;;;;;;5074780;28;20044;-62
2022/03/01 11:49:04;;;;;;;12.20;7.45;;;;;;;;;;5074355;28;20032;-65
2022/03/01 11:51:32;;;;;;;6.68;5.40;;;;;;;;;;5074567;28;20480;-66
2022/03/01 11:54:00;;;;;;;9.90;5.75;;;;;;;;;;5074606;28;20044;-66
2022/03/01 11:56:25;;;;;;;5.93;4.95;;;;;;;;;;5073146;28;20024;-66
2022/03/01 11:58:51;;;;;;;6.90;5.75;;;;;;;;;;5074407;28;20016;-66
2022/03/01 12:01:20;;;;;;;12.10;7.45;;;;;;;;;;5073024;28;20055;-66
2022/03/01 12:03:47;;;;;;;8.73;5.30;;;;;;;;;;5074584;28;20024;-65
2022/03/01 12:06:12;;;;;;;32.22;21.80;;;;;;;;;;5074275;28;20048;-66
2022/03/01 12:08:38;;;;;;;20.77;12.13;;;;;;;;;;5074234;28;20016;-65
2022/03/01 12:11:04;;;;;;;38.45;21.65;;;;;;;;;;5074126;28;20033;-66
2022/03/01 12:13:40;;;;;;;10.45;6.00;;;;;;;;;;5073917;28;20038;-66
2022/03/01 12:16:06;;;;;;;43.83;25.85;;;;;;;;;;5073489;28;20028;-66
2022/03/01 12:18:33;;;;;;;49.60;27.23;;;;;;;;;;5074033;28;20411;-66
2022/03/01 12:21:03;;;;;;;29.10;14.60;;;;;;;;;;5074230;28;20037;-66
2022/03/01 12:23:29;;;;;;;41.17;25.25;;;;;;;;;;5073904;28;20476;-66
2022/03/01 12:25:55;;;;;;;31.00;19.27;;;;;;;;;;5074008;28;20017;-66
2022/03/01 12:28:22;;;;;;;63.75;37.85;;;;;;;;;;5074233;28;20115;-66
2022/03/01 12:30:47;;;;;;;10.65;6.10;;;;;;;;;;5073999;28;20474;-66
2022/03/01 12:33:15;;;;;;;29.13;20.20;;;;;;;;;;5073014;28;20060;-66
2022/03/01 12:35:41;;;;;;;73.18;30.75;;;;;;;;;;5072849;28;20564;-66
2022/03/01 12:38:11;;;;;;;81.80;31.52;;;;;;;;;;5071961;28;20377;-66
2022/03/01 12:40:38;;;;;;;83.13;35.00;;;;;;;;;;5073091;28;20036;-66
2022/03/01 12:43:08;;;;;;;13.32;8.65;;;;;;;;;;5073193;28;20020;-66
2022/03/01 12:45:33;;;;;;;77.68;35.08;;;;;;;;;;5073464;28;20025;-65
2022/03/01 12:47:59;;;;;;;118.10;39.13;;;;;;;;;;5073408;28;20024;-66
2022/03/01 12:50:25;;;;;;;88.03;36.33;;;;;;;;;;5073152;28;20049;-67
2022/03/01 12:52:58;;;;;;;75.15;50.72;;;;;;;;;;5073357;28;20411;-66
2022/03/01 12:55:23;;;;;;;33.03;17.77;;;;;;;;;;5073438;28;20032;-66
2022/03/01 12:57:49;;;;;;;8.68;6.15;;;;;;;;;;5073228;28;20363;-65
2022/03/01 13:00:15;;;;;;;10.43;6.80;;;;;;;;;;5073273;28;20383;-66
2022/03/01 13:02:51;;;;;;;8.05;4.97;;;;;;;;;;5073204;28;20017;-65
2022/03/01 13:05:24;;;;;;;5.05;3.63;;;;;;;;;;5073251;28;20028;-65
2022/03/01 13:07:49;;;;;;;5.22;4.72;;;;;;;;;;5073229;28;20116;-66
2022/03/01 13:10:24;;;;;;;11.57;6.53;;;;;;;;;;5073202;28;20052;-66
2022/03/01 13:12:51;;;;;;;22.88;18.73;;;;;;;;;;5073234;28;20074;-67
2022/03/01 13:15:23;;;;;;;10.88;4.95;;;;;;;;;;5073140;28;20020;-67
2022/03/01 13:17:52;;;;;;;4.70;4.30;;;;;;;;;;5073232;28;20028;-66
2022/03/01 13:20:20;;;;;;;3.67;3.37;;;;;;;;;;5056590;28;20074;-62
2022/03/01 13:22:46;;;;;;;39.50;6.63;;;;;;;;;;5053097;28;20075;-61
2022/03/01 13:25:11;;;;;;;6.13;4.30;;;;;;;;;;5053044;28;20476;-62
2022/03/01 13:27:46;;;;;;;4.32;3.70;;;;;;;;;;5052888;28;20040;-62
2022/03/01 13:30:11;;;;;;;5.55;4.50;;;;;;;;;;5052913;28;20029;-61
2022/03/01 13:32:36;;;;;;;30.40;24.65;;;;;;;;;;5053110;28;20499;-61
2022/03/01 13:35:03;;;;;;;10.13;8.25;;;;;;;;;;5052835;28;20140;-62
2022/03/01 13:37:29;;;;;;;4.57;4.13;;;;;;;;;;5052160;28;20025;-62
2022/03/01 13:39:55;;;;;;;6.90;5.45;;;;;;;;;;5052964;28;20083;-61
2022/03/01 13:42:21;;;;;;;7.07;4.75;;;;;;;;;;5052846;28;20025;-61
2022/03/01 13:44:49;;;;;;;5.85;4.78;;;;;;;;;;5052838;28;20029;-62
2022/03/01 13:47:19;;;;;;;7.15;3.97;;;;;;;;;;5053039;28;20021;-62
2022/03/01 13:49:56;;;;;;;16.13;6.03;;;;;;;;;;5052816;28;20484;-62
2022/03/01 13:52:23;;;;;;;14.63;9.35;;;;;;;;;;5052835;28;20032;-62
2022/03/01 13:55:03;;;;;;;63.47;35.22;;;;;;;;;;5052977;28;20500;-62
2022/03/01 13:57:29;;;;;;;;;;;;;;;;;;5053440;28;20041;-62
2022/03/01 14:00:03;;;;;;;18.40;12.55;;;;;;;;;;5051679;28;20003;-62
2022/03/01 14:02:37;;;;;;;15.63;12.80;;;;;;;;;;5052557;28;20075;-62
2022/03/01 14:05:04;;;;;;;7.30;6.35;;;;;;;;;;5052771;28;20052;-62
2022/03/01 14:07:29;;;;;;;14.10;9.18;;;;;;;;;;5052495;28;20028;-62
2022/03/01 14:09:55;;;;;;;4.85;3.35;;;;;;;;;;5052785;28;20025;-62
2022/03/01 14:12:34;;;;;;;10.90;8.55;;;;;;;;;;5054588;28;20070;-62
2022/03/01 14:15:02;;;;;;;12.52;8.02;;;;;;;;;;5056422;28;20456;-69
2022/03/01 14:17:28;;;;;;;16.48;8.68;;;;;;;;;;5069788;28;20082;-69
2022/03/01 14:19:54;;;;;;;26.10;12.43;;;;;;;;;;5072888;28;20036;-69